createdAt,value
2019-02-22T00:01:54.359Z,33.60
2019-02-22T00:04:25.149Z,35.50
2019-02-22T00:06:56.556Z,33.83
2019-02-22T00:09:27.344Z,34.33
2019-02-22T00:11:58.379Z,38.10
2019-02-22T00:14:29.430Z,33.93
2019-02-22T00:17:00.306Z,30.80
2019-02-22T00:19:31.101Z,33.17
2019-02-22T00:22:01.917Z,34.83
2019-02-22T00:24:33.186Z,34.20
2019-02-22T00:27:04.271Z,29.60
2019-02-22T00:29:35.356Z,32.23
2019-02-22T00:32:06.471Z,34.97
2019-02-22T00:34:37.555Z,33.83
2019-02-22T00:37:08.559Z,35.73
2019-02-22T00:39:39.512Z,37.83
2019-02-22T00:42:10.900Z,34.60
2019-02-22T00:44:42.226Z,33.80
2019-02-22T00:47:13.074Z,31.23
2019-02-22T00:49:43.864Z,34.97
2019-02-22T00:52:14.983Z,32.07
2019-02-22T00:54:45.767Z,34.03
2019-02-22T00:57:16.771Z,40.43
2019-02-22T00:59:47.569Z,32.30
2019-02-22T01:02:18.465Z,35.43
2019-02-22T01:04:49.372Z,32.47
2019-02-22T01:07:20.187Z,34.37
2019-02-22T01:09:51.218Z,36.93
2019-02-22T01:12:22.459Z,32.03
2019-02-22T01:14:53.530Z,32.33
2019-02-22T01:17:24.656Z,33.23
2019-02-22T01:19:55.453Z,32.73
2019-02-22T01:22:30.339Z,34.47
2019-02-22T01:25:01.325Z,33.40
2019-02-22T01:27:32.301Z,34.30
2019-02-22T01:30:03.272Z,35.90
2019-02-22T01:32:34.114Z,33.07
2019-02-22T01:35:05.594Z,34.67
2019-02-22T01:37:36.363Z,39.43
2019-02-22T01:40:07.376Z,37.37
2019-02-22T01:42:38.222Z,35.10
2019-02-22T01:45:09.075Z,36.67
2019-02-22T01:47:39.832Z,34.93
2019-02-22T01:50:10.814Z,35.60
2019-02-22T01:52:41.819Z,37.33
2019-02-22T01:55:12.823Z,37.40
2019-02-22T01:57:43.592Z,39.87
2019-02-22T02:00:14.657Z,37.97
2019-02-22T02:02:45.589Z,37.37
2019-02-22T02:05:16.631Z,33.43
2019-02-22T02:07:47.619Z,32.57
2019-02-22T02:10:18.946Z,32.40
2019-02-22T02:12:50.069Z,37.23
2019-02-22T02:15:21.065Z,35.87
2019-02-22T02:17:51.831Z,37.43
2019-02-22T02:20:22.784Z,37.50
2019-02-22T02:22:53.577Z,34.60
2019-02-22T02:25:24.391Z,33.83
2019-02-22T02:27:56.416Z,35.03
2019-02-22T02:30:28.383Z,36.07
2019-02-22T02:32:59.613Z,33.93
2019-02-22T02:35:30.366Z,36.07
2019-02-22T02:38:01.428Z,34.87
2019-02-22T02:40:32.404Z,37.67
2019-02-22T02:43:03.568Z,34.97
2019-02-22T02:45:34.255Z,32.43
2019-02-22T02:48:05.320Z,35.23
2019-02-22T02:50:36.309Z,34.33
2019-02-22T02:53:07.308Z,33.93
2019-02-22T02:55:38.600Z,36.20
2019-02-22T02:58:09.601Z,34.20
2019-02-22T03:00:40.639Z,33.90
2019-02-22T03:03:11.397Z,38.27
2019-02-22T03:05:49.318Z,37.03
2019-02-22T03:08:20.828Z,33.53
2019-02-22T03:10:51.704Z,38.27
2019-02-22T03:13:22.908Z,44.03
2019-02-22T03:15:54.174Z,32.77
2019-02-22T03:18:25.130Z,35.13
2019-02-22T03:20:56.378Z,32.67
2019-02-22T03:23:27.628Z,36.53
2019-02-22T03:25:58.882Z,36.30
2019-02-22T03:28:30.234Z,37.83
2019-02-22T03:31:01.042Z,37.37
2019-02-22T03:33:32.765Z,34.67
2019-02-22T03:36:04.874Z,37.47
2019-02-22T03:38:35.936Z,36.70
2019-02-22T03:41:07.265Z,36.80
2019-02-22T03:43:38.260Z,37.03
2019-02-22T03:46:09.284Z,36.43
2019-02-22T03:48:41.359Z,38.43
2019-02-22T03:51:13.881Z,37.17
2019-02-22T03:53:48.712Z,40.93
2019-02-22T03:56:19.839Z,39.57
2019-02-22T03:58:50.711Z,39.10
2019-02-22T04:01:21.602Z,42.63
2019-02-22T04:03:52.683Z,46.13
2019-02-22T04:06:23.435Z,41.67
2019-02-22T04:08:54.217Z,44.27
2019-02-22T04:11:25.041Z,44.17
2019-02-22T04:13:56.022Z,42.73
2019-02-22T04:16:27.446Z,44.53
2019-02-22T04:18:58.207Z,45.30
2019-02-22T04:21:29.230Z,46.90
2019-02-22T04:24:00.406Z,42.90
2019-02-22T04:26:31.399Z,42.87
2019-02-22T04:29:02.447Z,44.60
2019-02-22T04:31:33.178Z,45.00
2019-02-22T04:34:04.059Z,43.00
2019-02-22T04:36:34.819Z,42.00
2019-02-22T04:39:06.556Z,43.33
2019-02-22T04:41:37.641Z,40.43
2019-02-22T04:44:08.428Z,43.03
2019-02-22T04:46:39.655Z,45.03
2019-02-22T04:49:10.722Z,43.47
2019-02-22T04:51:41.464Z,44.40
2019-02-22T04:54:12.241Z,40.70
2019-02-22T04:56:42.980Z,41.10
2019-02-22T04:59:13.749Z,42.70
2019-02-22T05:01:44.509Z,46.40
2019-02-22T05:04:15.479Z,45.87
2019-02-22T05:06:46.311Z,44.80
2019-02-22T05:09:18.088Z,45.87
2019-02-22T05:11:49.416Z,43.80
2019-02-22T05:14:20.418Z,45.43
2019-02-22T05:16:51.231Z,43.83
2019-02-22T05:19:22.321Z,46.83
2019-02-22T05:21:53.070Z,44.93
2019-02-22T05:24:23.826Z,46.60
2019-02-22T05:26:54.671Z,48.83
2019-02-22T05:29:25.813Z,45.97
2019-02-22T05:31:56.677Z,47.03
2019-02-22T05:34:27.594Z,47.63
2019-02-22T05:36:58.585Z,48.00
2019-02-22T05:39:29.811Z,47.97
2019-02-22T05:42:00.925Z,48.03
2019-02-22T05:44:32.642Z,48.93
2019-02-22T05:47:03.751Z,49.17
2019-02-22T05:49:34.634Z,48.50
2019-02-22T05:52:05.619Z,52.37
2019-02-22T05:54:36.691Z,48.93
2019-02-22T05:57:07.679Z,56.30
2019-02-22T05:59:38.645Z,55.93
2019-02-22T06:02:09.649Z,49.63
2019-02-22T06:04:40.614Z,53.53
2019-02-22T06:07:14.355Z,51.03
2019-02-22T06:09:45.352Z,52.13
2019-02-22T06:12:18.460Z,51.53
2019-02-22T06:14:48.775Z,46.90
2019-02-22T06:17:19.771Z,52.53
2019-02-22T06:19:50.551Z,49.33
2019-02-22T06:22:29.562Z,55.07
2019-02-22T06:24:53.802Z,50.80
2019-02-22T06:27:24.921Z,48.57
2019-02-22T06:29:55.679Z,49.17
2019-02-22T06:32:27.049Z,57.20
2019-02-22T06:34:58.327Z,51.30
2019-02-22T06:37:29.149Z,52.47
2019-02-22T06:40:00.416Z,49.20
2019-02-22T06:42:31.379Z,53.50
2019-02-22T06:45:02.133Z,56.53
2019-02-22T06:47:33.359Z,60.30
2019-02-22T06:50:04.637Z,56.20
2019-02-22T06:52:35.557Z,54.27
2019-02-22T06:55:06.731Z,54.17
2019-02-22T06:57:37.489Z,57.73
2019-02-22T07:00:09.551Z,54.03
2019-02-22T07:02:41.157Z,48.67
2019-02-22T07:05:11.990Z,52.57
2019-02-22T07:07:44.027Z,55.20
2019-02-22T07:10:15.065Z,53.63
2019-02-22T07:12:59.145Z,51.60
2019-02-22T07:15:30.197Z,54.37
2019-02-22T07:18:01.845Z,54.27
2019-02-22T07:20:33.068Z,52.27
2019-02-22T07:23:03.843Z,51.23
2019-02-22T07:25:34.867Z,51.43
2019-02-22T07:28:06.170Z,49.90
2019-02-22T07:30:37.487Z,49.33
2019-02-22T07:33:08.777Z,49.10
2019-02-22T07:35:39.536Z,50.20
2019-02-22T07:38:10.564Z,47.77
2019-02-22T07:40:41.320Z,54.90
2019-02-22T07:43:12.440Z,50.40
2019-02-22T07:45:43.565Z,52.80
2019-02-22T07:48:15.919Z,51.07
2019-02-22T07:50:56.840Z,54.37
2019-02-22T07:53:19.248Z,52.60
2019-02-22T07:55:50.008Z,52.73
2019-02-22T07:58:21.358Z,53.60
2019-02-22T08:00:52.196Z,56.43
2019-02-22T08:03:23.262Z,52.90
2019-02-22T08:05:54.131Z,55.50
2019-02-22T08:08:24.983Z,53.43
2019-02-22T08:10:55.976Z,48.27
2019-02-22T08:13:26.978Z,50.73
2019-02-22T08:15:57.757Z,53.50
2019-02-22T08:18:29.010Z,53.80
2019-02-22T08:20:59.811Z,57.13
2019-02-22T08:23:30.956Z,56.03
2019-02-22T08:26:01.782Z,56.00
2019-02-22T08:28:32.567Z,55.20
2019-02-22T08:31:03.593Z,52.13
2019-02-22T08:33:34.550Z,56.87
2019-02-22T08:36:05.304Z,54.33
2019-02-22T08:38:36.322Z,55.47
2019-02-22T08:41:07.346Z,51.20
2019-02-22T08:43:38.371Z,55.20
2019-02-22T08:46:09.329Z,52.27
2019-02-22T08:48:40.451Z,53.10
2019-02-22T08:51:11.443Z,56.77
2019-02-22T08:53:42.226Z,59.80
2019-02-22T08:56:13.890Z,56.67
2019-02-22T08:58:44.678Z,54.53
2019-02-22T09:01:15.873Z,52.87
2019-02-22T09:03:50.235Z,55.47
2019-02-22T09:06:19.903Z,56.30
2019-02-22T09:08:51.319Z,53.43
2019-02-22T09:11:22.708Z,54.00
2019-02-22T09:13:53.623Z,51.60
2019-02-22T09:16:24.955Z,51.43
2019-02-22T09:18:56.098Z,49.23
2019-02-22T09:21:26.929Z,50.43
2019-02-22T09:23:57.938Z,47.73
2019-02-22T09:26:28.919Z,49.63
2019-02-22T09:29:00.081Z,47.53
2019-02-22T09:31:31.152Z,45.70
2019-02-22T09:34:02.624Z,42.83
2019-02-22T09:36:33.624Z,43.60
2019-02-22T09:39:05.845Z,40.30
2019-02-22T09:41:38.083Z,43.00
2019-02-22T09:44:09.785Z,40.40
2019-02-22T09:46:41.189Z,40.47
2019-02-22T09:49:12.193Z,42.77
2019-02-22T09:51:43.002Z,41.77
2019-02-22T09:54:14.416Z,43.13
2019-02-22T09:56:45.490Z,42.97
2019-02-22T09:59:16.601Z,40.43
2019-02-22T10:01:48.154Z,40.80
2019-02-22T10:04:18.952Z,41.23
2019-02-22T10:06:50.061Z,41.70
2019-02-22T10:09:21.134Z,41.20
2019-02-22T10:11:52.379Z,40.00
2019-02-22T10:14:23.613Z,45.27
2019-02-22T10:16:54.918Z,36.00
2019-02-22T10:19:26.206Z,38.33
2019-02-22T10:21:57.713Z,37.73
2019-02-22T10:24:28.968Z,38.43
2019-02-22T10:27:00.011Z,38.10
2019-02-22T10:29:30.801Z,32.80
2019-02-22T10:32:01.574Z,32.10
2019-02-22T10:34:32.915Z,32.20
2019-02-22T10:37:03.685Z,28.83
2019-02-22T10:39:34.705Z,30.33
2019-02-22T10:42:05.817Z,15.73
2019-02-22T10:44:36.920Z,16.83
2019-02-22T10:47:07.942Z,7.90
2019-02-22T10:49:38.713Z,10.40
2019-02-22T10:52:09.778Z,7.27
2019-02-22T10:54:40.846Z,7.17
2019-02-22T10:57:11.585Z,7.30
2019-02-22T10:59:42.570Z,7.83
2019-02-22T11:02:13.325Z,10.10
2019-02-22T11:04:44.411Z,8.07
2019-02-22T11:07:15.193Z,8.13
2019-02-22T11:09:46.189Z,6.87
2019-02-22T11:12:16.949Z,7.10
2019-02-22T11:14:48.063Z,7.23
2019-02-22T11:17:18.853Z,9.33
2019-02-22T11:19:49.838Z,7.60
2019-02-22T11:22:20.811Z,7.90
2019-02-22T11:24:51.852Z,9.13
2019-02-22T11:27:22.664Z,7.97
2019-02-22T11:29:53.420Z,8.73
2019-02-22T11:32:24.155Z,8.30
2019-02-22T11:34:55.002Z,10.47
2019-02-22T11:37:25.811Z,7.63
2019-02-22T11:39:56.565Z,8.17
2019-02-22T11:42:27.525Z,8.30
2019-02-22T11:44:58.318Z,6.13
2019-02-22T11:47:29.381Z,6.97
2019-02-22T11:50:00.555Z,7.77
2019-02-22T11:52:31.839Z,6.30
2019-02-22T11:55:02.688Z,6.10
2019-02-22T11:57:35.040Z,6.70
2019-02-22T12:00:08.800Z,7.57
2019-02-22T12:02:40.661Z,6.90
2019-02-22T12:05:11.778Z,8.00
2019-02-22T12:07:43.160Z,6.10
2019-02-22T12:10:14.589Z,5.83
2019-02-22T12:12:45.617Z,5.97
2019-02-22T12:15:16.755Z,5.87
2019-02-22T12:17:47.514Z,6.27
2019-02-22T12:20:18.274Z,7.57
2019-02-22T12:22:49.419Z,5.13
2019-02-22T12:25:20.184Z,5.00
2019-02-22T12:27:50.933Z,5.50
2019-02-22T12:30:22.105Z,6.83
2019-02-22T12:32:53.044Z,5.80
2019-02-22T12:35:23.790Z,8.10
2019-02-22T12:37:54.536Z,7.27
2019-02-22T12:40:25.590Z,7.33
2019-02-22T12:42:57.637Z,6.50
2019-02-22T12:45:28.882Z,6.50
2019-02-22T12:47:59.699Z,9.17
2019-02-22T12:50:30.662Z,8.03
2019-02-22T12:53:01.703Z,8.13
2019-02-22T12:55:32.458Z,6.93
2019-02-22T12:58:03.424Z,7.30
2019-02-22T13:00:34.338Z,7.20
2019-02-22T13:03:05.937Z,6.90
2019-02-22T13:05:36.690Z,7.37
2019-02-22T13:08:07.433Z,6.63
2019-02-22T13:10:38.417Z,7.50
2019-02-22T13:13:09.156Z,7.67
2019-02-22T13:15:39.925Z,9.30
2019-02-22T13:18:10.739Z,7.17
2019-02-22T13:20:41.761Z,7.07
2019-02-22T13:23:12.860Z,8.90
2019-02-22T13:25:43.994Z,6.73
2019-02-22T13:28:14.833Z,7.13
2019-02-22T13:30:45.604Z,11.97
2019-02-22T13:33:16.962Z,10.77
2019-02-22T13:35:47.755Z,7.80
2019-02-22T13:38:18.797Z,9.10
2019-02-22T13:40:49.989Z,6.77
2019-02-22T13:43:20.749Z,6.90
2019-02-22T13:45:51.797Z,6.67
2019-02-22T13:48:22.742Z,9.87
2019-02-22T13:50:53.795Z,8.67
2019-02-22T13:53:24.838Z,8.10
2019-02-22T13:55:55.606Z,6.97
2019-02-22T13:58:26.336Z,7.13
2019-02-22T14:00:57.324Z,7.00
2019-02-22T14:03:28.075Z,6.47
2019-02-22T14:05:58.890Z,7.40
2019-02-22T14:08:30.595Z,6.73
2019-02-22T14:11:01.577Z,7.20
2019-02-22T14:13:33.347Z,8.97
2019-02-22T14:16:04.138Z,7.57
2019-02-22T14:18:34.962Z,7.80
2019-02-22T14:21:05.958Z,7.37
2019-02-22T14:23:36.720Z,7.10
2019-02-22T14:26:07.477Z,6.33
2019-02-22T14:28:38.715Z,8.03
2019-02-22T14:31:09.576Z,8.83
2019-02-22T14:33:40.754Z,8.40
2019-02-22T14:36:11.669Z,8.80
2019-02-22T14:38:42.456Z,7.10
2019-02-22T14:41:13.297Z,7.67
2019-02-22T14:43:44.340Z,8.57
2019-02-22T14:46:25.374Z,7.63
2019-02-22T14:48:47.568Z,7.30
2019-02-22T14:51:18.496Z,8.13
2019-02-22T14:53:49.216Z,7.63
2019-02-22T14:56:20.073Z,9.97
2019-02-22T14:58:51.431Z,7.87
2019-02-22T15:01:22.194Z,7.60
2019-02-22T15:03:52.931Z,7.47
2019-02-22T15:06:24.032Z,8.53
2019-02-22T15:08:55.782Z,8.20
2019-02-22T15:11:26.580Z,6.37
2019-02-22T15:13:57.405Z,6.93
2019-02-22T15:16:46.146Z,8.10
2019-02-22T15:19:17.981Z,6.77
2019-02-22T15:21:49.026Z,7.37
2019-02-22T15:24:19.822Z,7.73
2019-02-22T15:26:50.983Z,6.17
2019-02-22T15:29:21.769Z,6.90
2019-02-22T15:31:52.525Z,7.77
2019-02-22T15:34:23.726Z,6.70
2019-02-22T15:36:54.539Z,7.37
2019-02-22T15:39:25.608Z,7.50
2019-02-22T15:41:56.430Z,8.23
2019-02-22T15:44:27.232Z,6.97
2019-02-22T15:46:59.253Z,9.23
2019-02-22T15:49:30.199Z,8.33
2019-02-22T15:52:00.970Z,7.63
2019-02-22T15:54:32.154Z,6.20
2019-02-22T15:57:02.906Z,9.13
2019-02-22T15:59:33.685Z,6.87
2019-02-22T16:02:04.754Z,8.70
2019-02-22T16:04:48.439Z,9.50
2019-02-22T16:07:19.553Z,13.77
2019-02-22T16:09:50.807Z,10.43
2019-02-22T16:12:22.961Z,8.00
2019-02-22T16:14:54.010Z,8.37
2019-02-22T16:17:24.751Z,9.00
2019-02-22T16:19:55.922Z,8.73
2019-02-22T16:22:26.772Z,7.87
2019-02-22T16:24:58.058Z,10.73
2019-02-22T16:27:28.868Z,9.13
2019-02-22T16:30:00.335Z,7.03
2019-02-22T16:32:32.546Z,6.87
2019-02-22T16:35:03.535Z,8.30
2019-02-22T16:37:34.729Z,10.23
2019-02-22T16:40:07.086Z,8.53
2019-02-22T16:42:38.099Z,6.77
2019-02-22T16:45:09.613Z,8.37
2019-02-22T16:47:40.836Z,10.53
2019-02-22T16:50:11.822Z,7.37
2019-02-22T16:52:45.143Z,6.80
2019-02-22T16:55:15.683Z,7.20
2019-02-22T16:57:46.537Z,8.17
2019-02-22T17:00:17.615Z,8.40
2019-02-22T17:02:48.355Z,9.00
2019-02-22T17:05:19.125Z,7.83
2019-02-22T17:07:50.092Z,8.10
2019-02-22T17:10:21.148Z,9.53
2019-02-22T17:12:52.184Z,10.03
2019-02-22T17:15:22.959Z,8.43
2019-02-22T17:17:53.693Z,10.80
2019-02-22T17:20:24.776Z,9.53
2019-02-22T17:22:55.513Z,9.33
2019-02-22T17:25:26.921Z,9.53
2019-02-22T17:27:58.023Z,9.20
2019-02-22T17:30:29.371Z,9.30
2019-02-22T17:33:00.167Z,9.03
2019-02-22T17:35:31.117Z,10.63
2019-02-22T17:38:03.342Z,9.37
2019-02-22T17:40:34.463Z,9.47
2019-02-22T17:43:05.212Z,8.97
2019-02-22T17:45:36.192Z,10.50
2019-02-22T17:48:07.155Z,9.23
2019-02-22T17:50:38.714Z,10.30
2019-02-22T17:53:10.068Z,9.17
2019-02-22T17:55:41.585Z,9.60
2019-02-22T17:58:23.765Z,10.20
2019-02-22T18:00:45.365Z,9.97
2019-02-22T18:03:16.410Z,12.07
2019-02-22T18:05:47.445Z,9.90
2019-02-22T18:08:18.524Z,8.27
2019-02-22T18:10:49.605Z,10.53
2019-02-22T18:13:20.747Z,10.07
2019-02-22T18:15:51.707Z,9.13
2019-02-22T18:18:22.935Z,9.70
2019-02-22T18:20:53.992Z,10.23
2019-02-22T18:23:24.731Z,9.77
2019-02-22T18:25:55.710Z,9.27
2019-02-22T18:28:26.728Z,11.30
2019-02-22T18:30:58.072Z,10.73
2019-02-22T18:33:28.933Z,13.73
2019-02-22T18:36:00.018Z,9.23
2019-02-22T18:38:30.831Z,10.37
2019-02-22T18:41:02.377Z,9.30
2019-02-22T18:43:33.537Z,12.07
2019-02-22T18:46:04.591Z,8.93
2019-02-22T18:48:35.618Z,9.67
2019-02-22T18:51:06.606Z,9.90
2019-02-22T18:53:37.357Z,10.27
2019-02-22T18:56:08.385Z,10.37
2019-02-22T18:58:39.741Z,10.73
2019-02-22T19:01:10.877Z,9.63
2019-02-22T19:03:42.205Z,9.97
2019-02-22T19:06:14.252Z,9.17
2019-02-22T19:08:45.931Z,11.60
2019-02-22T19:11:17.160Z,9.53
2019-02-22T19:13:47.999Z,9.43
2019-02-22T19:16:18.756Z,10.17
2019-02-22T19:18:49.497Z,10.73
2019-02-22T19:21:20.316Z,10.60
2019-02-22T19:23:51.556Z,10.20
2019-02-22T19:26:23.535Z,9.77
2019-02-22T19:28:54.265Z,11.87
2019-02-22T19:31:25.260Z,9.57
2019-02-22T19:33:56.470Z,10.30
2019-02-22T19:36:27.218Z,10.43
2019-02-22T19:38:58.199Z,11.33
2019-02-22T19:41:29.066Z,9.20
2019-02-22T19:44:00.017Z,11.83
2019-02-22T19:46:30.992Z,7.83
2019-02-22T19:49:02.209Z,10.47
2019-02-22T19:51:32.975Z,11.23
2019-02-22T19:54:03.943Z,9.73
2019-02-22T19:56:34.974Z,9.60
2019-02-22T19:59:05.994Z,9.67
2019-02-22T20:01:37.012Z,9.33
2019-02-22T20:04:07.824Z,9.13
2019-02-22T20:06:39.795Z,10.63
2019-02-22T20:09:11.200Z,11.50
2019-02-22T20:11:42.766Z,11.57
2019-02-22T20:14:14.889Z,11.50
2019-02-22T20:16:46.067Z,10.87
2019-02-22T20:19:17.098Z,9.83
2019-02-22T20:21:48.121Z,13.27
2019-02-22T20:24:20.120Z,14.13
2019-02-22T20:26:50.880Z,12.10
2019-02-22T20:29:22.273Z,9.43
2019-02-22T20:31:53.320Z,9.13
2019-02-22T20:34:24.614Z,10.27
2019-02-22T20:36:56.270Z,12.03
2019-02-22T20:39:26.997Z,10.23
2019-02-22T20:41:58.101Z,9.07
2019-02-22T20:44:28.859Z,7.97
2019-02-22T20:46:59.831Z,10.30
2019-02-22T20:49:30.551Z,9.03
2019-02-22T20:52:01.305Z,10.43
2019-02-22T20:54:33.309Z,7.87
2019-02-22T20:57:04.353Z,7.03
2019-02-22T20:59:35.173Z,8.23
2019-02-22T21:02:06.542Z,14.03
2019-02-22T21:04:37.589Z,7.83
2019-02-22T21:07:08.336Z,7.33
2019-02-22T21:09:39.403Z,7.87
2019-02-22T21:12:10.496Z,8.83
2019-02-22T21:14:41.844Z,7.00
2019-02-22T21:17:12.843Z,7.70
2019-02-22T21:19:43.822Z,6.53
2019-02-22T21:22:14.807Z,7.10
2019-02-22T21:24:45.917Z,6.60
2019-02-22T21:27:17.167Z,8.57
2019-02-22T21:29:48.420Z,6.97
2019-02-22T21:32:19.443Z,7.63
2019-02-22T21:34:51.782Z,7.13
2019-02-22T21:37:22.855Z,5.97
2019-02-22T21:39:53.812Z,6.80
2019-02-22T21:42:24.564Z,6.13
2019-02-22T21:44:56.528Z,6.20
2019-02-22T21:47:27.522Z,5.20
2019-02-22T21:49:58.267Z,5.63
2019-02-22T21:52:29.254Z,5.93
2019-02-22T21:55:00.491Z,8.27
2019-02-22T21:57:31.569Z,7.00
2019-02-22T22:00:02.305Z,5.70
2019-02-22T22:02:33.419Z,6.00
2019-02-22T22:05:04.456Z,5.27
2019-02-22T22:07:35.439Z,6.33
2019-02-22T22:10:06.357Z,5.60
2019-02-22T22:12:37.177Z,6.33
2019-02-22T22:15:10.550Z,6.90
2019-02-22T22:17:42.394Z,7.20
2019-02-22T22:20:13.723Z,7.13
2019-02-22T22:22:44.581Z,7.37
2019-02-22T22:25:15.343Z,6.90
2019-02-22T22:27:46.089Z,6.77
2019-02-22T22:30:17.137Z,7.03
2019-02-22T22:32:48.505Z,6.47
2019-02-22T22:35:19.237Z,9.50
2019-02-22T22:37:50.351Z,6.17
2019-02-22T22:40:21.548Z,6.70
2019-02-22T22:42:52.834Z,7.07
2019-02-22T22:45:23.599Z,6.83
2019-02-22T22:47:54.408Z,8.20
2019-02-22T22:50:25.168Z,7.53
2019-02-22T22:52:55.927Z,8.00
2019-02-22T22:55:27.173Z,8.27
2019-02-22T22:57:58.160Z,7.73
2019-02-22T23:01:02.450Z,8.03
2019-02-22T23:03:34.137Z,7.33
2019-02-22T23:06:05.720Z,7.97
2019-02-22T23:08:36.479Z,8.90
2019-02-22T23:11:07.661Z,8.93
2019-02-22T23:13:38.681Z,9.70
2019-02-22T23:16:10.385Z,9.50
2019-02-22T23:18:41.524Z,8.60
2019-02-22T23:21:12.637Z,9.17
2019-02-22T23:23:43.453Z,8.37
2019-02-22T23:26:14.407Z,9.63
2019-02-22T23:28:45.474Z,9.17
2019-02-22T23:31:17.711Z,9.77
2019-02-22T23:33:48.709Z,10.77
2019-02-22T23:36:19.435Z,9.83
2019-02-22T23:38:50.540Z,10.03
2019-02-22T23:41:21.915Z,10.47
2019-02-22T23:43:52.941Z,10.03
2019-02-22T23:46:23.895Z,10.33
2019-02-22T23:48:54.867Z,9.70
2019-02-22T23:51:26.098Z,10.27
2019-02-22T23:53:57.057Z,12.00
2019-02-22T23:56:28.040Z,10.20
2019-02-22T23:58:58.779Z,10.43
